createdAt,value
2018-08-09T00:00:27.858Z,0
2018-08-09T00:01:27.835Z,0
2018-08-09T00:02:27.854Z,0
2018-08-09T00:03:27.793Z,0
2018-08-09T00:04:27.797Z,0
2018-08-09T00:05:27.855Z,0
2018-08-09T00:06:27.831Z,0
2018-08-09T00:07:27.853Z,0
2018-08-09T00:08:27.847Z,0
2018-08-09T00:09:27.802Z,0
2018-08-09T00:10:27.737Z,0
2018-08-09T00:11:27.857Z,0
2018-08-09T00:12:27.768Z,0
2018-08-09T00:13:27.799Z,0
2018-08-09T00:14:27.750Z,0
2018-08-09T00:15:27.867Z,0
2018-08-09T00:16:27.814Z,0
2018-08-09T00:17:27.803Z,0
2018-08-09T00:18:27.860Z,0
2018-08-09T00:19:27.838Z,0
2018-08-09T00:20:27.869Z,0
2018-08-09T00:21:27.798Z,0
2018-08-09T00:22:27.760Z,0
2018-08-09T00:23:27.774Z,0
2018-08-09T00:24:27.771Z,0
2018-08-09T00:25:27.774Z,0
2018-08-09T00:26:27.842Z,0
2018-08-09T00:27:27.732Z,0
2018-08-09T00:28:27.845Z,0
2018-08-09T00:29:27.779Z,0
2018-08-09T00:30:27.777Z,0
2018-08-09T00:31:27.782Z,0
2018-08-09T00:32:27.849Z,0
2018-08-09T00:33:27.844Z,0
2018-08-09T00:34:27.768Z,0
2018-08-09T00:35:27.847Z,0
2018-08-09T00:36:27.755Z,0
2018-08-09T00:37:27.788Z,0
2018-08-09T00:38:27.820Z,0
2018-08-09T00:39:27.885Z,0
2018-08-09T00:40:27.875Z,0
2018-08-09T00:41:27.817Z,0
2018-08-09T00:42:27.883Z,0
2018-08-09T00:43:27.784Z,0
2018-08-09T00:44:27.891Z,0
2018-08-09T00:45:27.787Z,0
2018-08-09T00:46:27.792Z,0
2018-08-09T00:47:27.860Z,0
2018-08-09T00:48:27.789Z,0
2018-08-09T00:49:27.951Z,0
2018-08-09T00:50:27.794Z,0
2018-08-09T00:51:27.793Z,0
2018-08-09T00:52:27.791Z,0
2018-08-09T00:53:27.859Z,0
2018-08-09T00:54:27.939Z,0
2018-08-09T00:55:27.885Z,0
2018-08-09T00:56:27.862Z,0
2018-08-09T00:57:27.784Z,0
2018-08-09T00:58:27.866Z,0
2018-08-09T00:59:27.768Z,0
2018-08-09T01:00:27.838Z,0
2018-08-09T01:01:27.802Z,0
2018-08-09T01:02:27.852Z,0
2018-08-09T01:03:27.787Z,0
2018-08-09T01:04:27.793Z,0
2018-08-09T01:05:27.864Z,0
2018-08-09T01:06:27.870Z,0
2018-08-09T01:07:27.792Z,0
2018-08-09T01:08:27.865Z,0
2018-08-09T01:09:27.796Z,0
2018-08-09T01:10:27.792Z,0
2018-08-09T01:11:27.815Z,0
2018-08-09T01:12:27.794Z,0
2018-08-09T01:13:27.817Z,0
2018-08-09T01:14:27.911Z,0
2018-08-09T01:15:27.878Z,0
2018-08-09T01:16:27.878Z,0
2018-08-09T01:17:27.810Z,0
2018-08-09T01:18:27.881Z,0
2018-08-09T01:19:27.881Z,0
2018-08-09T01:20:27.888Z,0
2018-08-09T01:21:27.881Z,0
2018-08-09T01:22:27.895Z,0
2018-08-09T01:23:27.832Z,0
2018-08-09T01:24:27.903Z,0
2018-08-09T01:25:27.863Z,0
2018-08-09T01:26:27.940Z,0
2018-08-09T01:27:27.854Z,0
2018-08-09T01:28:27.805Z,0
2018-08-09T01:29:27.915Z,0
2018-08-09T01:30:27.842Z,0
2018-08-09T01:31:27.917Z,0
2018-08-09T01:32:27.870Z,0
2018-08-09T01:33:27.812Z,0
2018-08-09T01:34:27.897Z,0
2018-08-09T01:35:27.890Z,0
2018-08-09T01:36:27.917Z,0
2018-08-09T01:37:27.814Z,0
2018-08-09T01:38:27.862Z,0
2018-08-09T01:39:27.932Z,0
2018-08-09T01:40:27.831Z,0
2018-08-09T01:41:28.169Z,0
2018-08-09T01:42:27.923Z,0
2018-08-09T01:43:27.920Z,0
2018-08-09T01:44:27.920Z,0
2018-08-09T01:45:27.879Z,0
2018-08-09T01:46:27.834Z,0
2018-08-09T01:47:27.818Z,0
2018-08-09T01:48:27.934Z,0
2018-08-09T01:49:27.973Z,0
2018-08-09T01:50:27.881Z,0
2018-08-09T01:51:27.917Z,0
2018-08-09T01:52:27.931Z,0
2018-08-09T01:53:27.944Z,0
2018-08-09T01:54:27.835Z,0
2018-08-09T01:55:27.836Z,0
2018-08-09T01:56:27.909Z,0
2018-08-09T01:57:27.848Z,0
2018-08-09T01:58:27.911Z,0
2018-08-09T01:59:27.917Z,0
2018-08-09T02:00:27.904Z,0
2018-08-09T02:01:27.907Z,0
2018-08-09T02:02:27.840Z,0
2018-08-09T02:03:27.847Z,0
2018-08-09T02:04:27.800Z,0
2018-08-09T02:05:27.892Z,0
2018-08-09T02:06:27.885Z,0
2018-08-09T02:07:27.872Z,0
2018-08-09T02:08:27.843Z,0
2018-08-09T02:09:27.852Z,0
2018-08-09T02:10:27.788Z,0
2018-08-09T02:11:27.875Z,0
2018-08-09T02:12:27.812Z,0
2018-08-09T02:13:27.901Z,0
2018-08-09T02:14:27.923Z,0
2018-08-09T02:15:27.848Z,0
2018-08-09T02:16:27.850Z,0
2018-08-09T02:17:27.864Z,0
2018-08-09T02:18:27.923Z,0
2018-08-09T02:19:27.811Z,0
2018-08-09T02:20:27.927Z,0
2018-08-09T02:21:27.856Z,0
2018-08-09T02:22:27.858Z,0
2018-08-09T02:23:27.938Z,0
2018-08-09T02:24:27.905Z,0
2018-08-09T02:25:27.986Z,0
2018-08-09T02:26:27.861Z,0
2018-08-09T02:27:27.961Z,0
2018-08-09T02:28:27.849Z,0
2018-08-09T02:29:27.867Z,0
2018-08-09T02:30:27.928Z,0
2018-08-09T02:31:27.875Z,0
2018-08-09T02:32:27.927Z,0
2018-08-09T02:33:27.856Z,0
2018-08-09T02:34:27.852Z,0
2018-08-09T02:35:27.855Z,0
2018-08-09T02:36:27.851Z,0
2018-08-09T02:37:27.866Z,0
2018-08-09T02:38:27.927Z,0
2018-08-09T02:39:27.860Z,0
2018-08-09T02:40:27.964Z,0
2018-08-09T02:41:27.883Z,0
2018-08-09T02:42:27.935Z,0
2018-08-09T02:43:27.818Z,0
2018-08-09T02:44:27.943Z,0
2018-08-09T02:45:27.883Z,0
2018-08-09T02:46:27.873Z,0
2018-08-09T02:47:27.873Z,0
2018-08-09T02:48:27.944Z,0
2018-08-09T02:49:27.949Z,0
2018-08-09T02:50:27.953Z,0
2018-08-09T02:51:27.880Z,0
2018-08-09T02:52:28.014Z,0
2018-08-09T02:53:27.978Z,0
2018-08-09T02:54:27.852Z,0
2018-08-09T02:55:27.883Z,0
2018-08-09T02:56:27.870Z,0
2018-08-09T02:57:27.868Z,0
2018-08-09T02:58:27.874Z,0
2018-08-09T02:59:27.922Z,0
2018-08-09T03:00:27.949Z,0
2018-08-09T03:01:27.933Z,0
2018-08-09T03:02:27.923Z,0
2018-08-09T03:03:27.956Z,0
2018-08-09T03:04:27.891Z,0
2018-08-09T03:05:27.959Z,0
2018-08-09T03:06:27.908Z,0
2018-08-09T03:07:27.961Z,0
2018-08-09T03:08:27.888Z,0
2018-08-09T03:09:27.907Z,0
2018-08-09T03:10:27.889Z,0
2018-08-09T03:11:27.958Z,0
2018-08-09T03:12:27.888Z,0
2018-08-09T03:13:27.893Z,0
2018-08-09T03:14:27.892Z,4
2018-08-09T03:15:27.816Z,4
2018-08-09T03:16:27.907Z,4
2018-08-09T03:17:27.866Z,4
2018-08-09T03:18:27.908Z,0
2018-08-09T03:19:27.819Z,4
2018-08-09T03:20:27.824Z,4
2018-08-09T03:21:27.882Z,8
2018-08-09T03:22:27.866Z,8
2018-08-09T03:23:27.912Z,8
2018-08-09T03:24:28.035Z,12
2018-08-09T03:25:27.964Z,8
2018-08-09T03:26:27.929Z,16
2018-08-09T03:27:27.997Z,16
2018-08-09T03:28:27.873Z,16
2018-08-09T03:29:27.894Z,20
2018-08-09T03:30:27.936Z,24
2018-08-09T03:31:27.891Z,32
2018-08-09T03:32:27.930Z,36
2018-08-09T03:33:27.934Z,40
2018-08-09T03:34:27.911Z,48
2018-08-09T03:35:28.026Z,56
2018-08-09T03:36:27.904Z,64
2018-08-09T03:37:27.983Z,76
2018-08-09T03:38:27.978Z,88
2018-08-09T03:39:27.907Z,100
2018-08-09T03:40:27.870Z,112
2018-08-09T03:41:27.910Z,132
2018-08-09T03:42:27.911Z,148
2018-08-09T03:43:27.980Z,172
2018-08-09T03:44:27.985Z,192
2018-08-09T03:45:27.913Z,220
2018-08-09T03:46:27.910Z,248
2018-08-09T03:47:27.941Z,280
2018-08-09T03:48:27.920Z,308
2018-08-09T03:49:27.982Z,348
2018-08-09T03:50:27.921Z,384
2018-08-09T03:51:27.994Z,428
2018-08-09T03:52:27.993Z,468
2018-08-09T03:53:27.987Z,516
2018-08-09T03:54:27.918Z,568
2018-08-09T03:55:27.888Z,624
2018-08-09T03:56:27.879Z,688
2018-08-09T03:57:27.964Z,752
2018-08-09T03:58:27.891Z,824
2018-08-09T03:59:27.948Z,892
2018-08-09T04:00:27.931Z,972
2018-08-09T04:01:27.978Z,1044
2018-08-09T04:02:27.943Z,1124
2018-08-09T04:03:27.893Z,1208
2018-08-09T04:04:27.967Z,1292
2018-08-09T04:05:27.995Z,1376
2018-08-09T04:06:28.060Z,1472
2018-08-09T04:07:27.974Z,1564
2018-08-09T04:08:27.967Z,1660
2018-08-09T04:09:27.997Z,1760
2018-08-09T04:10:27.999Z,1864
2018-08-09T04:11:27.939Z,1960
2018-08-09T04:12:27.920Z,2076
2018-08-09T04:13:27.940Z,2188
2018-08-09T04:14:27.966Z,2304
2018-08-09T04:15:27.931Z,2420
2018-08-09T04:16:28.000Z,2544
2018-08-09T04:17:28.002Z,2664
2018-08-09T04:18:27.940Z,2788
2018-08-09T04:19:28.040Z,2912
2018-08-09T04:20:28.044Z,3036
2018-08-09T04:21:27.986Z,3168
2018-08-09T04:22:28.000Z,3296
2018-08-09T04:23:27.922Z,3444
2018-08-09T04:24:27.977Z,3576
2018-08-09T04:25:28.009Z,3720
2018-08-09T04:26:28.112Z,3868
2018-08-09T04:27:28.040Z,4012
2018-08-09T04:28:28.010Z,4156
2018-08-09T04:29:28.006Z,4304
2018-08-09T04:30:27.987Z,4460
2018-08-09T04:31:27.930Z,4612
2018-08-09T04:32:27.917Z,4784
2018-08-09T04:33:27.978Z,4956
2018-08-09T04:34:27.969Z,5136
2018-08-09T04:35:27.935Z,5300
2018-08-09T04:36:27.987Z,5464
2018-08-09T04:37:28.015Z,5644
2018-08-09T04:38:27.993Z,5820
2018-08-09T04:39:27.957Z,6008
2018-08-09T04:40:27.990Z,6196
2018-08-09T04:41:28.054Z,6396
2018-08-09T04:42:27.984Z,6592
2018-08-09T04:43:27.996Z,6784
2018-08-09T04:44:28.055Z,6984
2018-08-09T04:45:28.046Z,7184
2018-08-09T04:46:27.990Z,7380
2018-08-09T04:47:28.001Z,7568
2018-08-09T04:48:28.064Z,7768
2018-08-09T04:49:27.988Z,7964
2018-08-09T04:50:28.044Z,8168
2018-08-09T04:51:27.945Z,8380
2018-08-09T04:52:27.967Z,8592
2018-08-09T04:53:28.063Z,8832
2018-08-09T04:54:28.013Z,9068
2018-08-09T04:55:28.006Z,9300
2018-08-09T04:56:28.025Z,9520
2018-08-09T04:57:27.996Z,9732
2018-08-09T04:58:28.030Z,9956
2018-08-09T04:59:27.995Z,10172
2018-08-09T05:00:28.028Z,10396
2018-08-09T05:01:27.938Z,10608
2018-08-09T05:02:27.954Z,10824
2018-08-09T05:03:28.032Z,11052
2018-08-09T05:04:28.040Z,11284
2018-08-09T05:05:28.035Z,11560
2018-08-09T05:06:27.969Z,11876
2018-08-09T05:07:27.929Z,12220
2018-08-09T05:08:28.041Z,12576
2018-08-09T05:09:27.977Z,12968
2018-08-09T05:10:28.006Z,13380
2018-08-09T05:11:27.971Z,13836
2018-08-09T05:12:28.045Z,14188
2018-08-09T05:13:27.999Z,14220
2018-08-09T05:14:27.967Z,13968
2018-08-09T05:15:27.947Z,13556
2018-08-09T05:16:27.966Z,13236
2018-08-09T05:17:27.951Z,13256
2018-08-09T05:18:28.042Z,13460
2018-08-09T05:19:27.924Z,13492
2018-08-09T05:20:28.041Z,13424
2018-08-09T05:21:27.990Z,13556
2018-08-09T05:22:27.962Z,14024
2018-08-09T05:23:27.953Z,14608
2018-08-09T05:24:27.985Z,14960
2018-08-09T05:25:27.977Z,15028
2018-08-09T05:26:28.014Z,15224
2018-08-09T05:27:27.969Z,15268
2018-08-09T05:28:28.051Z,14812
2018-08-09T05:29:27.956Z,14396
2018-08-09T05:30:28.005Z,14300
2018-08-09T05:31:28.053Z,14380
2018-08-09T05:32:27.933Z,14796
2018-08-09T05:33:28.049Z,15196
2018-08-09T05:34:28.005Z,15124
2018-08-09T05:35:27.961Z,14944
2018-08-09T05:36:27.939Z,14960
2018-08-09T05:37:27.976Z,15080
2018-08-09T05:38:28.051Z,15096
2018-08-09T05:39:27.984Z,15284
2018-08-09T05:40:27.931Z,15908
2018-08-09T05:41:28.051Z,16720
2018-08-09T05:42:28.057Z,17476
2018-08-09T05:43:28.056Z,18148
2018-08-09T05:44:28.095Z,18324
2018-08-09T05:45:28.075Z,17996
2018-08-09T05:46:28.070Z,18108
2018-08-09T05:47:28.100Z,18548
2018-08-09T05:48:28.146Z,18728
2018-08-09T05:49:27.992Z,19116
2018-08-09T05:50:28.099Z,20200
2018-08-09T05:51:28.126Z,23968
2018-08-09T05:52:28.098Z,22340
2018-08-09T05:53:28.031Z,25312
2018-08-09T05:54:28.115Z,25888
2018-08-09T05:55:27.976Z,27552
2018-08-09T05:56:27.994Z,36160
2018-08-09T05:57:28.038Z,28000
2018-08-09T05:58:28.090Z,29792
2018-08-09T05:59:28.086Z,36864
2018-08-09T06:00:28.079Z,45664
2018-08-09T06:01:27.979Z,37216
2018-08-09T06:02:28.048Z,31168
2018-08-09T06:03:28.077Z,31616
2018-08-09T06:04:27.983Z,32512
2018-08-09T06:05:28.006Z,42048
2018-08-09T06:06:27.998Z,45280
2018-08-09T06:07:28.075Z,44800
2018-08-09T06:08:28.071Z,43392
2018-08-09T06:09:28.076Z,42176
2018-08-09T06:10:28.077Z,41376
2018-08-09T06:11:28.033Z,40896
2018-08-09T06:12:28.075Z,40608
2018-08-09T06:13:28.058Z,39392
2018-08-09T06:14:28.009Z,38720
2018-08-09T06:15:28.142Z,27840
2018-08-09T06:16:28.129Z,37408
2018-08-09T06:17:28.093Z,42144
2018-08-09T06:18:28.121Z,43488
2018-08-09T06:19:28.088Z,44000
2018-08-09T06:20:28.008Z,43360
2018-08-09T06:21:28.121Z,42784
2018-08-09T06:22:28.009Z,44128
2018-08-09T06:23:28.123Z,45344
2018-08-09T06:24:28.097Z,45856
2018-08-09T06:25:28.012Z,46656
2018-08-09T06:26:28.120Z,48384
2018-08-09T06:27:28.075Z,49632
2018-08-09T06:28:28.097Z,49856
2018-08-09T06:29:28.099Z,49088
2018-08-09T06:30:28.136Z,47424
2018-08-09T06:31:28.033Z,48448
2018-08-09T06:32:28.066Z,49280
2018-08-09T06:33:28.029Z,50368
2018-08-09T06:34:27.973Z,52576
2018-08-09T06:35:28.061Z,55200
2018-08-09T06:36:28.096Z,56544
2018-08-09T06:37:28.050Z,56864
2018-08-09T06:38:28.009Z,56992
2018-08-09T06:39:28.065Z,57504
2018-08-09T06:40:28.097Z,59392
2018-08-09T06:41:28.056Z,62560
2018-08-09T06:42:28.057Z,65600
2018-08-09T06:43:28.098Z,68032
2018-08-09T06:44:28.100Z,72224
2018-08-09T06:45:28.066Z,74144
2018-08-09T06:46:28.102Z,75520
2018-08-09T06:47:28.096Z,74336
2018-08-09T06:48:28.050Z,73536
2018-08-09T06:49:28.028Z,72256
2018-08-09T06:50:28.050Z,74720
2018-08-09T06:51:28.016Z,75072
2018-08-09T06:52:28.032Z,75840
2018-08-09T06:53:28.101Z,75104
2018-08-09T06:54:28.037Z,73280
2018-08-09T06:55:28.046Z,70784
2018-08-09T06:56:28.052Z,66944
2018-08-09T06:57:28.125Z,63840
2018-08-09T06:58:28.049Z,61504
2018-08-09T06:59:28.157Z,61152
2018-08-09T07:00:28.048Z,62176
2018-08-09T07:01:28.056Z,63264
2018-08-09T07:02:28.119Z,64960
2018-08-09T07:03:28.055Z,67552
2018-08-09T07:04:28.089Z,71168
2018-08-09T07:05:28.121Z,74176
2018-08-09T07:06:28.132Z,75808
2018-08-09T07:07:28.145Z,76448
2018-08-09T07:08:28.184Z,75936
2018-08-09T07:09:28.045Z,73568
2018-08-09T07:10:28.098Z,70784
2018-08-09T07:11:28.142Z,69760
2018-08-09T07:12:28.124Z,68512
2018-08-09T07:13:28.170Z,67968
2018-08-09T07:14:28.146Z,67872
2018-08-09T07:15:28.165Z,68704
2018-08-09T07:16:28.099Z,70368
2018-08-09T07:17:28.133Z,72992
2018-08-09T07:18:28.161Z,76096
2018-08-09T07:19:28.067Z,78432
2018-08-09T07:20:28.133Z,80544
2018-08-09T07:21:28.033Z,81248
2018-08-09T07:22:28.159Z,81856
2018-08-09T07:23:28.132Z,81600
2018-08-09T07:24:28.141Z,80288
2018-08-09T07:25:28.133Z,78976
2018-08-09T07:26:28.111Z,78816
2018-08-09T07:27:28.024Z,78912
2018-08-09T07:28:28.069Z,79200
2018-08-09T07:29:28.077Z,80256
2018-08-09T07:30:28.141Z,80544
2018-08-09T07:31:28.068Z,80736
2018-08-09T07:32:28.146Z,81632
2018-08-09T07:33:28.161Z,81856
2018-08-09T07:34:28.169Z,82208
2018-08-09T07:35:28.149Z,84160
2018-08-09T07:36:28.165Z,86272
2018-08-09T07:37:28.123Z,89920
2018-08-09T07:38:28.081Z,93408
2018-08-09T07:39:28.280Z,95872
2018-08-09T07:40:28.141Z,99968
2018-08-09T07:41:28.184Z,100768
2018-08-09T07:42:28.139Z,100000
2018-08-09T07:43:28.145Z,96192
2018-08-09T07:44:28.147Z,90816
2018-08-09T07:45:28.183Z,89024
2018-08-09T07:46:28.083Z,87040
2018-08-09T07:47:28.107Z,78752
2018-08-09T07:48:28.233Z,60800
2018-08-09T07:49:28.104Z,96384
2018-08-09T07:50:28.108Z,98944
2018-08-09T07:51:28.084Z,100384
2018-08-09T07:52:28.085Z,107424
2018-08-09T07:53:28.157Z,109440
2018-08-09T07:54:28.138Z,80800
2018-08-09T07:55:28.156Z,68768
2018-08-09T07:56:28.176Z,106752
2018-08-09T07:57:28.157Z,68192
2018-08-09T07:58:28.186Z,50848
2018-08-09T07:59:28.150Z,49856
2018-08-09T08:00:28.149Z,64608
2018-08-09T08:01:28.080Z,101152
2018-08-09T08:02:28.131Z,107296
2018-08-09T08:03:28.132Z,107424
2018-08-09T08:04:28.164Z,105088
2018-08-09T08:05:28.086Z,105280
2018-08-09T08:06:28.134Z,102400
2018-08-09T08:07:28.134Z,99136
2018-08-09T08:08:28.251Z,97312
2018-08-09T08:09:28.181Z,99968
2018-08-09T08:10:28.137Z,103680
2018-08-09T08:11:28.113Z,106848
2018-08-09T08:12:28.136Z,108704
2018-08-09T08:13:28.174Z,109696
2018-08-09T08:14:28.093Z,110592
2018-08-09T08:15:28.168Z,107968
2018-08-09T08:16:28.101Z,108096
2018-08-09T08:17:28.207Z,92480
2018-08-09T08:18:28.180Z,83264
2018-08-09T08:19:28.220Z,72448
2018-08-09T08:20:28.108Z,92320
2018-08-09T08:21:28.105Z,87168
2018-08-09T08:22:28.176Z,123520
2018-08-09T08:23:28.107Z,121952
2018-08-09T08:24:28.110Z,123840
2018-08-09T08:25:28.179Z,119200
2018-08-09T08:26:28.178Z,111584
2018-08-09T08:27:28.113Z,115968
2018-08-09T08:28:28.197Z,116352
2018-08-09T08:29:28.181Z,118144
2018-08-09T08:30:28.181Z,117888
2018-08-09T08:31:28.119Z,117760
2018-08-09T08:32:28.179Z,118368
2018-08-09T08:33:28.118Z,117696
2018-08-09T08:34:28.211Z,113888
2018-08-09T08:35:28.183Z,110432
2018-08-09T08:36:28.217Z,109984
2018-08-09T08:37:28.120Z,110176
2018-08-09T08:38:28.187Z,73856
2018-08-09T08:39:28.192Z,80672
2018-08-09T08:40:28.193Z,68448
2018-08-09T08:41:28.207Z,66464
2018-08-09T08:42:28.126Z,76992
2018-08-09T08:43:28.127Z,99424
2018-08-09T08:44:28.192Z,114336
2018-08-09T08:45:28.229Z,145312
2018-08-09T08:46:28.213Z,146752
2018-08-09T08:47:28.222Z,145696
2018-08-09T08:48:28.094Z,138432
2018-08-09T08:49:28.158Z,140416
2018-08-09T08:50:28.158Z,126816
2018-08-09T08:51:28.217Z,138080
2018-08-09T08:52:28.167Z,132992
2018-08-09T08:53:28.189Z,130464
2018-08-09T08:54:28.220Z,113312
2018-08-09T08:55:28.189Z,100480
2018-08-09T08:56:28.066Z,120352
2018-08-09T08:57:28.135Z,137280
2018-08-09T08:58:28.193Z,85216
2018-08-09T08:59:28.136Z,120992
2018-08-09T09:00:28.206Z,126176
2018-08-09T09:01:28.127Z,109952
2018-08-09T09:02:28.103Z,94560
2018-08-09T09:03:28.202Z,108640
2018-08-09T09:04:28.220Z,109216
2018-08-09T09:05:28.129Z,124832
2018-08-09T09:06:28.198Z,143360
2018-08-09T09:07:28.075Z,142496
2018-08-09T09:08:28.090Z,144960
2018-08-09T09:09:28.126Z,147616
2018-08-09T09:10:28.202Z,146944
2018-08-09T09:11:28.207Z,144480
2018-08-09T09:12:28.128Z,140992
2018-08-09T09:13:28.166Z,137632
2018-08-09T09:14:28.163Z,136192
2018-08-09T09:15:28.191Z,134432
2018-08-09T09:16:28.132Z,132800
2018-08-09T09:17:28.104Z,131296
2018-08-09T09:18:28.146Z,128672
2018-08-09T09:19:28.111Z,130400
2018-08-09T09:20:28.200Z,77568
2018-08-09T09:21:28.176Z,140384
2018-08-09T09:22:28.147Z,149504
2018-08-09T09:23:28.193Z,157440
2018-08-09T09:24:28.155Z,162688
2018-08-09T09:25:28.142Z,164032
2018-08-09T09:26:28.162Z,159872
2018-08-09T09:27:28.223Z,157024
2018-08-09T09:28:28.151Z,148864
2018-08-09T09:29:28.228Z,140672
2018-08-09T09:30:28.158Z,133888
2018-08-09T09:31:28.223Z,130560
2018-08-09T09:32:28.158Z,130624
2018-08-09T09:33:28.221Z,135648
2018-08-09T09:34:28.225Z,140864
2018-08-09T09:35:28.226Z,145248
2018-08-09T09:36:28.226Z,145024
2018-08-09T09:37:28.226Z,140832
2018-08-09T09:38:28.226Z,137056
2018-08-09T09:39:28.231Z,133920
2018-08-09T09:40:28.231Z,131488
2018-08-09T09:41:28.286Z,133600
2018-08-09T09:42:28.159Z,140768
2018-08-09T09:43:28.172Z,148288
2018-08-09T09:44:28.240Z,154208
2018-08-09T09:45:28.162Z,158400
2018-08-09T09:46:28.232Z,158656
2018-08-09T09:47:28.235Z,152320
2018-08-09T09:48:28.171Z,154016
2018-08-09T09:49:28.167Z,100160
2018-08-09T09:50:28.237Z,69056
2018-08-09T09:51:28.241Z,68448
2018-08-09T09:52:28.196Z,72192
2018-08-09T09:53:28.239Z,80416
2018-08-09T09:54:28.240Z,75776
2018-08-09T09:55:28.275Z,79872
2018-08-09T09:56:28.164Z,77504
2018-08-09T09:57:28.207Z,81984
2018-08-09T09:58:28.207Z,79904
2018-08-09T09:59:28.160Z,74656
2018-08-09T10:00:28.173Z,70944
2018-08-09T10:01:28.266Z,69632
2018-08-09T10:02:28.210Z,69280
2018-08-09T10:03:28.266Z,70656
2018-08-09T10:04:28.185Z,69632
2018-08-09T10:05:28.278Z,69984
2018-08-09T10:06:28.268Z,71328
2018-08-09T10:07:28.247Z,71584
2018-08-09T10:08:28.186Z,72224
2018-08-09T10:09:28.285Z,74368
2018-08-09T10:10:28.319Z,82240
2018-08-09T10:11:28.274Z,83200
2018-08-09T10:12:28.168Z,76384
2018-08-09T10:13:28.283Z,86048
2018-08-09T10:14:28.288Z,87712
2018-08-09T10:15:28.255Z,86624
2018-08-09T10:16:28.279Z,91968
2018-08-09T10:17:28.309Z,120160
2018-08-09T10:18:28.267Z,117408
2018-08-09T10:19:28.174Z,106112
2018-08-09T10:20:28.287Z,164512
2018-08-09T10:21:28.254Z,124576
2018-08-09T10:22:28.196Z,174112
2018-08-09T10:23:28.282Z,201408
2018-08-09T10:24:28.288Z,173024
2018-08-09T10:25:28.165Z,158720
2018-08-09T10:26:28.248Z,193088
2018-08-09T10:27:28.252Z,148896
2018-08-09T10:28:28.245Z,181760
2018-08-09T10:29:28.209Z,146848
2018-08-09T10:30:28.211Z,150176
2018-08-09T10:31:28.194Z,134976
2018-08-09T10:32:28.183Z,125056
2018-08-09T10:33:28.199Z,115968
2018-08-09T10:34:28.167Z,94400
2018-08-09T10:35:28.290Z,137984
2018-08-09T10:36:28.203Z,104224
2018-08-09T10:37:28.282Z,88896
2018-08-09T10:38:28.268Z,84000
2018-08-09T10:39:28.270Z,83712
2018-08-09T10:40:28.206Z,82976
2018-08-09T10:41:28.276Z,82912
2018-08-09T10:42:28.201Z,85632
2018-08-09T10:43:28.283Z,100320
2018-08-09T10:44:28.209Z,91808
2018-08-09T10:45:28.305Z,100928
2018-08-09T10:46:28.290Z,100960
2018-08-09T10:47:28.270Z,177856
2018-08-09T10:48:28.313Z,175712
2018-08-09T10:49:28.181Z,145216
2018-08-09T10:50:28.249Z,139424
2018-08-09T10:51:28.279Z,162016
2018-08-09T10:52:28.278Z,119712
2018-08-09T10:53:28.308Z,95360
2018-08-09T10:54:28.277Z,80608
2018-08-09T10:55:28.248Z,81920
2018-08-09T10:56:28.245Z,96640
2018-08-09T10:57:28.240Z,97632
2018-08-09T10:58:28.247Z,83008
2018-08-09T10:59:28.253Z,90656
2018-08-09T11:00:28.209Z,89120
2018-08-09T11:01:28.284Z,96256
2018-08-09T11:02:28.229Z,104768
2018-08-09T11:03:28.254Z,92160
2018-08-09T11:04:28.286Z,82752
2018-08-09T11:05:28.249Z,78688
2018-08-09T11:06:28.320Z,85824
2018-08-09T11:07:28.221Z,87232
2018-08-09T11:08:28.225Z,125056
2018-08-09T11:09:28.290Z,180992
2018-08-09T11:10:28.293Z,182304
2018-08-09T11:11:28.300Z,153600
2018-08-09T11:12:28.292Z,116928
2018-08-09T11:13:28.292Z,179040
2018-08-09T11:14:28.228Z,119328
2018-08-09T11:15:28.307Z,131104
2018-08-09T11:16:28.324Z,84480
2018-08-09T11:17:28.257Z,102912
2018-08-09T11:18:28.223Z,126976
2018-08-09T11:19:28.297Z,108192
2018-08-09T11:20:28.338Z,61664
2018-08-09T11:21:28.315Z,84288
2018-08-09T11:22:28.261Z,60256
2018-08-09T11:23:28.244Z,73280
2018-08-09T11:24:28.323Z,65056
2018-08-09T11:25:28.251Z,65088
2018-08-09T11:26:28.202Z,63392
2018-08-09T11:27:28.284Z,74144
2018-08-09T11:28:28.173Z,80928
2018-08-09T11:29:28.176Z,84608
2018-08-09T11:30:28.229Z,74656
2018-08-09T11:31:28.327Z,107776
2018-08-09T11:32:28.239Z,143520
2018-08-09T11:33:28.214Z,144608
2018-08-09T11:34:28.242Z,151680
2018-08-09T11:35:28.308Z,156448
2018-08-09T11:36:28.319Z,89408
2018-08-09T11:37:28.211Z,165408
2018-08-09T11:38:28.311Z,119776
2018-08-09T11:39:28.271Z,67552
2018-08-09T11:40:28.212Z,96128
2018-08-09T11:41:28.217Z,125024
2018-08-09T11:42:28.269Z,80096
2018-08-09T11:43:28.234Z,57568
2018-08-09T11:44:28.317Z,54368
2018-08-09T11:45:28.248Z,60256
2018-08-09T11:46:28.320Z,126240
2018-08-09T11:47:28.316Z,149984
2018-08-09T11:48:28.355Z,169920
2018-08-09T11:49:28.322Z,168704
2018-08-09T11:50:28.258Z,165440
2018-08-09T11:51:28.253Z,161856
2018-08-09T11:52:28.343Z,62400
2018-08-09T11:53:28.321Z,52800
2018-08-09T11:54:28.315Z,53152
2018-08-09T11:55:28.282Z,65248
2018-08-09T11:56:28.348Z,63136
2018-08-09T11:57:28.259Z,62720
2018-08-09T11:58:28.330Z,160864
2018-08-09T11:59:28.264Z,163456
2018-08-09T12:00:28.327Z,159104
2018-08-09T12:01:28.357Z,103296
2018-08-09T12:02:28.259Z,149056
2018-08-09T12:03:28.327Z,133920
2018-08-09T12:04:28.268Z,94560
2018-08-09T12:05:28.333Z,69984
2018-08-09T12:06:28.321Z,133536
2018-08-09T12:07:28.263Z,148160
2018-08-09T12:08:28.269Z,153216
2018-08-09T12:09:28.354Z,155488
2018-08-09T12:10:28.268Z,153344
2018-08-09T12:11:28.334Z,150208
2018-08-09T12:12:28.265Z,147040
2018-08-09T12:13:28.342Z,147264
2018-08-09T12:14:28.267Z,150112
2018-08-09T12:15:28.365Z,155968
2018-08-09T12:16:28.275Z,159168
2018-08-09T12:17:28.365Z,63168
2018-08-09T12:18:28.379Z,133760
2018-08-09T12:19:28.263Z,147104
2018-08-09T12:20:28.304Z,54880
2018-08-09T12:21:28.312Z,56832
2018-08-09T12:22:28.310Z,163488
2018-08-09T12:23:28.380Z,162912
2018-08-09T12:24:28.346Z,81472
2018-08-09T12:25:28.312Z,88064
2018-08-09T12:27:28.267Z,83296
2018-08-09T12:28:28.309Z,175136
2018-08-09T12:29:28.346Z,159040
2018-08-09T12:30:28.340Z,101536
2018-08-09T12:31:28.350Z,175616
2018-08-09T12:32:28.244Z,156288
2018-08-09T12:33:28.254Z,83520
2018-08-09T12:34:28.386Z,111488
2018-08-09T12:35:28.269Z,172320
2018-08-09T12:36:28.329Z,98144
2018-08-09T12:37:28.339Z,165536
2018-08-09T12:38:28.220Z,133952
2018-08-09T12:39:28.254Z,95872
2018-08-09T12:40:28.352Z,63264
2018-08-09T12:41:28.227Z,73408
2018-08-09T12:42:28.313Z,51904
2018-08-09T12:43:28.264Z,48576
2018-08-09T12:44:28.305Z,47936
2018-08-09T12:45:28.385Z,48032
2018-08-09T12:46:28.251Z,48128
2018-08-09T12:47:28.315Z,49088
2018-08-09T12:48:28.239Z,50656
2018-08-09T12:49:28.317Z,53856
2018-08-09T12:50:28.258Z,92928
2018-08-09T12:51:28.342Z,65184
2018-08-09T12:52:28.314Z,70304
2018-08-09T12:53:28.235Z,128288
2018-08-09T12:54:28.230Z,142112
2018-08-09T12:55:28.399Z,66688
2018-08-09T12:56:28.345Z,64448
2018-08-09T12:57:28.269Z,135904
2018-08-09T12:58:28.344Z,60384
2018-08-09T12:59:28.391Z,53152
2018-08-09T13:00:28.380Z,47264
2018-08-09T13:01:28.271Z,56256
2018-08-09T13:02:28.366Z,43616
2018-08-09T13:03:28.363Z,38272
2018-08-09T13:04:28.339Z,35968
2018-08-09T13:05:28.280Z,36128
2018-08-09T13:06:28.390Z,36192
2018-08-09T13:07:28.414Z,37024
2018-08-09T13:08:28.486Z,38144
2018-08-09T13:09:28.309Z,38080
2018-08-09T13:10:28.346Z,35968
2018-08-09T13:11:28.349Z,32768
2018-08-09T13:12:28.339Z,29984
2018-08-09T13:13:28.331Z,27392
2018-08-09T13:14:28.411Z,25312
2018-08-09T13:15:28.314Z,22848
2018-08-09T13:16:28.383Z,20340
2018-08-09T13:17:28.379Z,18624
2018-08-09T13:18:28.313Z,17152